sensor_id;sensor_type;location;lat;lon;timestamp;P1;durP1;ratioP1;P2;durP2;ratioP2
8626;SDS011;4351;51.422;6.794;2022-10-16T00:00:46;6.30;;;3.80;;
8626;SDS011;4351;51.422;6.794;2022-10-16T00:03:14;9.07;;;4.00;;
8626;SDS011;4351;51.422;6.794;2022-10-16T00:05:44;6.20;;;3.70;;
8626;SDS011;4351;51.422;6.794;2022-10-16T00:08:12;8.03;;;4.10;;
8626;SDS011;4351;51.422;6.794;2022-10-16T00:10:42;5.80;;;3.67;;
8626;SDS011;4351;51.422;6.794;2022-10-16T00:13:10;10.10;;;4.20;;
8626;SDS011;4351;51.422;6.794;2022-10-16T00:15:43;6.80;;;3.50;;
8626;SDS011;4351;51.422;6.794;2022-10-16T00:18:21;7.97;;;4.27;;
8626;SDS011;4351;51.422;6.794;2022-10-16T00:20:50;6.63;;;3.90;;
8626;SDS011;4351;51.422;6.794;2022-10-16T00:23:20;8.13;;;4.30;;
8626;SDS011;4351;51.422;6.794;2022-10-16T00:25:57;5.90;;;4.03;;
8626;SDS011;4351;51.422;6.794;2022-10-16T00:28:27;7.70;;;4.40;;
8626;SDS011;4351;51.422;6.794;2022-10-16T00:30:56;7.67;;;4.20;;
8626;SDS011;4351;51.422;6.794;2022-10-16T00:33:24;9.43;;;4.77;;
8626;SDS011;4351;51.422;6.794;2022-10-16T00:35:57;8.30;;;4.10;;
8626;SDS011;4351;51.422;6.794;2022-10-16T00:38:34;7.67;;;4.20;;
8626;SDS011;4351;51.422;6.794;2022-10-16T00:41:05;8.67;;;4.87;;
8626;SDS011;4351;51.422;6.794;2022-10-16T00:43:37;7.93;;;4.30;;
8626;SDS011;4351;51.422;6.794;2022-10-16T00:46:10;8.50;;;4.90;;
8626;SDS011;4351;51.422;6.794;2022-10-16T00:48:57;8.87;;;4.87;;
8626;SDS011;4351;51.422;6.794;2022-10-16T00:51:30;8.33;;;4.90;;
8626;SDS011;4351;51.422;6.794;2022-10-16T00:54:02;7.17;;;4.77;;
8626;SDS011;4351;51.422;6.794;2022-10-16T00:56:34;9.40;;;4.73;;
8626;SDS011;4351;51.422;6.794;2022-10-16T00:59:06;8.50;;;4.30;;
8626;SDS011;4351;51.422;6.794;2022-10-16T01:01:39;10.00;;;4.80;;
8626;SDS011;4351;51.422;6.794;2022-10-16T01:04:10;7.77;;;4.57;;
8626;SDS011;4351;51.422;6.794;2022-10-16T01:06:39;7.63;;;4.43;;
8626;SDS011;4351;51.422;6.794;2022-10-16T01:09:14;9.33;;;4.17;;
8626;SDS011;4351;51.422;6.794;2022-10-16T01:11:57;9.03;;;5.00;;
8626;SDS011;4351;51.422;6.794;2022-10-16T01:14:36;10.87;;;5.60;;
8626;SDS011;4351;51.422;6.794;2022-10-16T01:17:15;11.30;;;5.70;;
8626;SDS011;4351;51.422;6.794;2022-10-16T01:20:01;8.90;;;5.57;;
8626;SDS011;4351;51.422;6.794;2022-10-16T01:22:37;9.10;;;5.40;;
8626;SDS011;4351;51.422;6.794;2022-10-16T01:25:24;11.07;;;6.03;;
8626;SDS011;4351;51.422;6.794;2022-10-16T01:28:02;10.43;;;5.80;;
8626;SDS011;4351;51.422;6.794;2022-10-16T01:30:36;11.57;;;5.27;;
8626;SDS011;4351;51.422;6.794;2022-10-16T01:33:06;9.30;;;4.90;;
8626;SDS011;4351;51.422;6.794;2022-10-16T01:35:45;10.17;;;5.10;;
8626;SDS011;4351;51.422;6.794;2022-10-16T01:38:20;8.87;;;4.77;;
8626;SDS011;4351;51.422;6.794;2022-10-16T01:40:56;8.70;;;4.83;;
8626;SDS011;4351;51.422;6.794;2022-10-16T01:43:31;11.33;;;5.20;;
8626;SDS011;4351;51.422;6.794;2022-10-16T01:46:02;10.80;;;5.20;;
8626;SDS011;4351;51.422;6.794;2022-10-16T01:48:32;12.73;;;5.10;;
8626;SDS011;4351;51.422;6.794;2022-10-16T01:51:03;7.57;;;4.63;;
8626;SDS011;4351;51.422;6.794;2022-10-16T01:53:35;8.33;;;4.57;;
8626;SDS011;4351;51.422;6.794;2022-10-16T01:56:04;7.83;;;4.70;;
8626;SDS011;4351;51.422;6.794;2022-10-16T01:58:46;7.03;;;5.10;;
8626;SDS011;4351;51.422;6.794;2022-10-16T02:01:17;7.53;;;5.10;;
8626;SDS011;4351;51.422;6.794;2022-10-16T02:03:49;6.47;;;4.30;;
8626;SDS011;4351;51.422;6.794;2022-10-16T02:06:21;7.73;;;4.50;;
8626;SDS011;4351;51.422;6.794;2022-10-16T02:08:50;8.40;;;3.80;;
8626;SDS011;4351;51.422;6.794;2022-10-16T02:11:18;5.30;;;3.70;;
8626;SDS011;4351;51.422;6.794;2022-10-16T02:13:50;5.87;;;3.47;;
8626;SDS011;4351;51.422;6.794;2022-10-16T02:16:23;7.13;;;3.30;;
8626;SDS011;4351;51.422;6.794;2022-10-16T02:19:02;4.77;;;2.90;;
8626;SDS011;4351;51.422;6.794;2022-10-16T02:21:35;7.00;;;3.20;;
8626;SDS011;4351;51.422;6.794;2022-10-16T02:24:13;3.80;;;2.67;;
8626;SDS011;4351;51.422;6.794;2022-10-16T02:26:49;3.00;;;2.47;;
8626;SDS011;4351;51.422;6.794;2022-10-16T02:29:22;8.80;;;2.63;;
8626;SDS011;4351;51.422;6.794;2022-10-16T02:31:54;5.03;;;2.50;;
8626;SDS011;4351;51.422;6.794;2022-10-16T02:34:27;6.43;;;2.33;;
8626;SDS011;4351;51.422;6.794;2022-10-16T02:37:00;6.57;;;2.90;;
8626;SDS011;4351;51.422;6.794;2022-10-16T02:39:34;6.30;;;2.37;;
8626;SDS011;4351;51.422;6.794;2022-10-16T02:42:02;5.63;;;2.43;;
8626;SDS011;4351;51.422;6.794;2022-10-16T02:44:32;9.07;;;2.63;;
8626;SDS011;4351;51.422;6.794;2022-10-16T02:47:00;8.97;;;2.90;;
8626;SDS011;4351;51.422;6.794;2022-10-16T02:49:29;3.83;;;2.00;;
8626;SDS011;4351;51.422;6.794;2022-10-16T02:51:57;5.87;;;2.20;;
8626;SDS011;4351;51.422;6.794;2022-10-16T02:54:25;3.70;;;1.90;;
8626;SDS011;4351;51.422;6.794;2022-10-16T02:56:54;4.03;;;2.50;;
8626;SDS011;4351;51.422;6.794;2022-10-16T02:59:24;4.07;;;2.63;;
8626;SDS011;4351;51.422;6.794;2022-10-16T03:01:53;5.40;;;2.27;;
8626;SDS011;4351;51.422;6.794;2022-10-16T03:04:22;4.80;;;2.50;;
8626;SDS011;4351;51.422;6.794;2022-10-16T03:06:50;3.97;;;2.20;;
8626;SDS011;4351;51.422;6.794;2022-10-16T03:09:18;5.97;;;2.20;;
8626;SDS011;4351;51.422;6.794;2022-10-16T03:11:46;2.97;;;2.20;;
8626;SDS011;4351;51.422;6.794;2022-10-16T03:14:15;5.80;;;2.33;;
8626;SDS011;4351;51.422;6.794;2022-10-16T03:16:43;6.67;;;2.20;;
8626;SDS011;4351;51.422;6.794;2022-10-16T03:19:27;4.00;;;1.80;;
8626;SDS011;4351;51.422;6.794;2022-10-16T03:21:55;3.63;;;2.10;;
8626;SDS011;4351;51.422;6.794;2022-10-16T03:24:23;5.13;;;2.60;;
8626;SDS011;4351;51.422;6.794;2022-10-16T03:26:52;3.40;;;2.40;;
8626;SDS011;4351;51.422;6.794;2022-10-16T03:29:20;5.37;;;2.13;;
8626;SDS011;4351;51.422;6.794;2022-10-16T03:31:48;3.47;;;1.90;;
8626;SDS011;4351;51.422;6.794;2022-10-16T03:34:19;1.90;;;1.60;;
8626;SDS011;4351;51.422;6.794;2022-10-16T03:36:49;3.40;;;1.80;;
8626;SDS011;4351;51.422;6.794;2022-10-16T03:39:17;4.40;;;2.20;;
8626;SDS011;4351;51.422;6.794;2022-10-16T03:41:46;3.47;;;2.07;;
8626;SDS011;4351;51.422;6.794;2022-10-16T03:44:14;4.30;;;2.00;;
8626;SDS011;4351;51.422;6.794;2022-10-16T03:46:42;5.23;;;2.87;;
8626;SDS011;4351;51.422;6.794;2022-10-16T03:49:13;4.17;;;3.10;;
8626;SDS011;4351;51.422;6.794;2022-10-16T03:52:14;3.70;;;2.30;;
8626;SDS011;4351;51.422;6.794;2022-10-16T03:54:44;3.30;;;1.67;;
8626;SDS011;4351;51.422;6.794;2022-10-16T03:57:12;2.43;;;1.80;;
8626;SDS011;4351;51.422;6.794;2022-10-16T03:59:40;4.17;;;2.03;;
8626;SDS011;4351;51.422;6.794;2022-10-16T04:02:09;2.47;;;1.80;;
8626;SDS011;4351;51.422;6.794;2022-10-16T04:04:37;2.60;;;1.50;;
8626;SDS011;4351;51.422;6.794;2022-10-16T04:07:13;3.43;;;1.33;;
8626;SDS011;4351;51.422;6.794;2022-10-16T04:09:56;3.43;;;1.70;;
8626;SDS011;4351;51.422;6.794;2022-10-16T04:12:25;2.40;;;2.00;;
8626;SDS011;4351;51.422;6.794;2022-10-16T04:14:53;3.17;;;1.60;;
8626;SDS011;4351;51.422;6.794;2022-10-16T04:17:22;6.30;;;2.37;;
8626;SDS011;4351;51.422;6.794;2022-10-16T04:19:50;4.43;;;2.13;;
8626;SDS011;4351;51.422;6.794;2022-10-16T04:22:22;4.00;;;1.70;;
8626;SDS011;4351;51.422;6.794;2022-10-16T04:24:53;3.17;;;1.60;;
8626;SDS011;4351;51.422;6.794;2022-10-16T04:27:21;1.43;;;1.33;;
8626;SDS011;4351;51.422;6.794;2022-10-16T04:29:51;3.23;;;1.67;;
8626;SDS011;4351;51.422;6.794;2022-10-16T04:32:19;3.40;;;1.67;;
8626;SDS011;4351;51.422;6.794;2022-10-16T04:34:53;4.97;;;1.97;;
8626;SDS011;4351;51.422;6.794;2022-10-16T04:37:31;4.53;;;1.77;;
8626;SDS011;4351;51.422;6.794;2022-10-16T04:40:00;3.50;;;1.63;;
8626;SDS011;4351;51.422;6.794;2022-10-16T04:42:28;2.90;;;1.60;;
8626;SDS011;4351;51.422;6.794;2022-10-16T04:44:57;2.90;;;1.50;;
8626;SDS011;4351;51.422;6.794;2022-10-16T04:47:25;4.23;;;1.50;;
8626;SDS011;4351;51.422;6.794;2022-10-16T04:49:54;6.10;;;1.63;;
8626;SDS011;4351;51.422;6.794;2022-10-16T04:52:23;3.60;;;1.67;;
8626;SDS011;4351;51.422;6.794;2022-10-16T04:54:54;2.63;;;1.90;;
8626;SDS011;4351;51.422;6.794;2022-10-16T04:57:27;3.40;;;1.70;;
8626;SDS011;4351;51.422;6.794;2022-10-16T04:59:55;4.43;;;1.70;;
8626;SDS011;4351;51.422;6.794;2022-10-16T05:02:24;1.77;;;1.40;;
8626;SDS011;4351;51.422;6.794;2022-10-16T05:04:52;4.57;;;1.60;;
8626;SDS011;4351;51.422;6.794;2022-10-16T05:07:21;3.17;;;1.70;;
8626;SDS011;4351;51.422;6.794;2022-10-16T05:09:49;3.60;;;1.73;;
8626;SDS011;4351;51.422;6.794;2022-10-16T05:12:21;3.97;;;1.90;;
8626;SDS011;4351;51.422;6.794;2022-10-16T05:14:50;2.67;;;2.00;;
8626;SDS011;4351;51.422;6.794;2022-10-16T05:17:18;4.03;;;1.93;;
8626;SDS011;4351;51.422;6.794;2022-10-16T05:19:46;2.00;;;1.80;;
8626;SDS011;4351;51.422;6.794;2022-10-16T05:25:10;2.57;;;1.70;;
8626;SDS011;4351;51.422;6.794;2022-10-16T05:27:40;4.07;;;1.90;;
8626;SDS011;4351;51.422;6.794;2022-10-16T05:30:09;4.40;;;2.03;;
8626;SDS011;4351;51.422;6.794;2022-10-16T05:32:38;3.57;;;1.87;;
8626;SDS011;4351;51.422;6.794;2022-10-16T05:35:06;4.20;;;1.83;;
8626;SDS011;4351;51.422;6.794;2022-10-16T05:37:39;2.37;;;1.80;;
8626;SDS011;4351;51.422;6.794;2022-10-16T05:40:08;5.03;;;1.63;;
8626;SDS011;4351;51.422;6.794;2022-10-16T05:42:37;2.93;;;1.73;;
8626;SDS011;4351;51.422;6.794;2022-10-16T05:45:11;2.50;;;1.67;;
8626;SDS011;4351;51.422;6.794;2022-10-16T05:47:40;3.77;;;1.80;;
8626;SDS011;4351;51.422;6.794;2022-10-16T05:50:09;2.23;;;1.50;;
8626;SDS011;4351;51.422;6.794;2022-10-16T05:52:37;3.33;;;1.53;;
8626;SDS011;4351;51.422;6.794;2022-10-16T05:55:06;2.77;;;1.80;;
8626;SDS011;4351;51.422;6.794;2022-10-16T05:57:43;3.13;;;1.53;;
8626;SDS011;4351;51.422;6.794;2022-10-16T06:00:13;3.03;;;1.90;;
8626;SDS011;4351;51.422;6.794;2022-10-16T06:02:41;3.57;;;1.70;;
8626;SDS011;4351;51.422;6.794;2022-10-16T06:05:10;2.17;;;1.67;;
8626;SDS011;4351;51.422;6.794;2022-10-16T06:07:38;4.37;;;1.60;;
8626;SDS011;4351;51.422;6.794;2022-10-16T06:10:07;2.90;;;1.80;;
8626;SDS011;4351;51.422;6.794;2022-10-16T06:12:35;3.17;;;1.50;;
8626;SDS011;4351;51.422;6.794;2022-10-16T06:15:04;2.80;;;1.57;;
8626;SDS011;4351;51.422;6.794;2022-10-16T06:17:35;4.70;;;1.77;;
8626;SDS011;4351;51.422;6.794;2022-10-16T06:20:06;2.87;;;1.63;;
8626;SDS011;4351;51.422;6.794;2022-10-16T06:22:35;4.73;;;1.60;;
8626;SDS011;4351;51.422;6.794;2022-10-16T06:25:06;2.23;;;1.60;;
8626;SDS011;4351;51.422;6.794;2022-10-16T06:27:39;2.90;;;1.50;;
8626;SDS011;4351;51.422;6.794;2022-10-16T06:33:02;3.03;;;1.90;;
8626;SDS011;4351;51.422;6.794;2022-10-16T06:35:31;2.20;;;1.57;;
8626;SDS011;4351;51.422;6.794;2022-10-16T06:37:59;2.57;;;1.90;;
8626;SDS011;4351;51.422;6.794;2022-10-16T06:43:21;2.00;;;1.77;;
8626;SDS011;4351;51.422;6.794;2022-10-16T06:45:50;4.10;;;1.70;;
8626;SDS011;4351;51.422;6.794;2022-10-16T06:48:21;2.50;;;1.70;;
8626;SDS011;4351;51.422;6.794;2022-10-16T06:50:57;6.37;;;2.00;;
8626;SDS011;4351;51.422;6.794;2022-10-16T06:53:30;3.03;;;1.90;;
8626;SDS011;4351;51.422;6.794;2022-10-16T06:56:15;5.30;;;2.00;;
8626;SDS011;4351;51.422;6.794;2022-10-16T06:58:44;4.97;;;1.90;;
8626;SDS011;4351;51.422;6.794;2022-10-16T07:08:13;2.67;;;1.43;;
8626;SDS011;4351;51.422;6.794;2022-10-16T07:10:44;3.20;;;1.80;;
8626;SDS011;4351;51.422;6.794;2022-10-16T07:13:17;3.33;;;1.67;;
8626;SDS011;4351;51.422;6.794;2022-10-16T07:15:57;3.00;;;2.07;;
8626;SDS011;4351;51.422;6.794;2022-10-16T07:18:37;4.57;;;2.00;;
8626;SDS011;4351;51.422;6.794;2022-10-16T07:21:07;5.60;;;1.80;;
8626;SDS011;4351;51.422;6.794;2022-10-16T07:23:49;3.67;;;1.70;;
8626;SDS011;4351;51.422;6.794;2022-10-16T07:26:59;2.73;;;1.97;;
8626;SDS011;4351;51.422;6.794;2022-10-16T07:29:30;2.73;;;1.97;;
8626;SDS011;4351;51.422;6.794;2022-10-16T07:32:16;3.23;;;1.90;;
8626;SDS011;4351;51.422;6.794;2022-10-16T07:34:51;2.37;;;1.60;;
8626;SDS011;4351;51.422;6.794;2022-10-16T07:37:33;4.07;;;1.80;;
8626;SDS011;4351;51.422;6.794;2022-10-16T07:43:45;2.97;;;1.83;;
8626;SDS011;4351;51.422;6.794;2022-10-16T07:46:28;4.83;;;1.80;;
8626;SDS011;4351;51.422;6.794;2022-10-16T07:49:00;3.57;;;2.20;;
8626;SDS011;4351;51.422;6.794;2022-10-16T07:51:31;3.23;;;1.90;;
8626;SDS011;4351;51.422;6.794;2022-10-16T07:53:59;3.80;;;1.70;;
8626;SDS011;4351;51.422;6.794;2022-10-16T07:56:30;2.53;;;1.73;;
8626;SDS011;4351;51.422;6.794;2022-10-16T07:59:09;2.63;;;1.70;;
8626;SDS011;4351;51.422;6.794;2022-10-16T08:01:39;5.13;;;1.60;;
8626;SDS011;4351;51.422;6.794;2022-10-16T08:04:08;3.07;;;1.40;;
8626;SDS011;4351;51.422;6.794;2022-10-16T08:06:40;3.83;;;1.83;;
8626;SDS011;4351;51.422;6.794;2022-10-16T08:09:20;2.53;;;1.70;;
8626;SDS011;4351;51.422;6.794;2022-10-16T08:11:57;1.60;;;1.50;;
8626;SDS011;4351;51.422;6.794;2022-10-16T08:14:28;3.50;;;1.73;;
8626;SDS011;4351;51.422;6.794;2022-10-16T08:16:59;3.00;;;1.70;;
8626;SDS011;4351;51.422;6.794;2022-10-16T08:19:33;3.80;;;1.30;;
8626;SDS011;4351;51.422;6.794;2022-10-16T08:22:02;3.23;;;1.50;;
8626;SDS011;4351;51.422;6.794;2022-10-16T08:24:34;2.90;;;1.77;;
8626;SDS011;4351;51.422;6.794;2022-10-16T08:27:08;4.70;;;1.90;;
8626;SDS011;4351;51.422;6.794;2022-10-16T08:29:36;5.23;;;1.80;;
8626;SDS011;4351;51.422;6.794;2022-10-16T08:32:05;6.23;;;1.60;;
8626;SDS011;4351;51.422;6.794;2022-10-16T08:34:33;5.03;;;1.67;;
8626;SDS011;4351;51.422;6.794;2022-10-16T08:37:06;4.53;;;1.80;;
8626;SDS011;4351;51.422;6.794;2022-10-16T08:39:48;4.63;;;1.70;;
8626;SDS011;4351;51.422;6.794;2022-10-16T08:42:21;3.33;;;1.70;;
8626;SDS011;4351;51.422;6.794;2022-10-16T08:45:06;2.47;;;1.50;;
8626;SDS011;4351;51.422;6.794;2022-10-16T08:47:49;3.27;;;1.77;;
8626;SDS011;4351;51.422;6.794;2022-10-16T08:50:32;4.37;;;2.33;;
8626;SDS011;4351;51.422;6.794;2022-10-16T08:53:05;4.60;;;2.40;;
8626;SDS011;4351;51.422;6.794;2022-10-16T08:55:37;5.50;;;2.20;;
8626;SDS011;4351;51.422;6.794;2022-10-16T08:58:18;6.33;;;2.47;;
8626;SDS011;4351;51.422;6.794;2022-10-16T09:00:48;5.03;;;2.33;;
8626;SDS011;4351;51.422;6.794;2022-10-16T09:03:26;6.50;;;2.33;;
8626;SDS011;4351;51.422;6.794;2022-10-16T09:06:59;6.03;;;2.77;;
8626;SDS011;4351;51.422;6.794;2022-10-16T09:09:36;7.53;;;2.40;;
8626;SDS011;4351;51.422;6.794;2022-10-16T09:12:20;4.10;;;2.10;;
8626;SDS011;4351;51.422;6.794;2022-10-16T09:15:00;5.77;;;2.23;;
8626;SDS011;4351;51.422;6.794;2022-10-16T09:17:37;4.50;;;2.03;;
8626;SDS011;4351;51.422;6.794;2022-10-16T09:20:23;6.47;;;2.30;;
8626;SDS011;4351;51.422;6.794;2022-10-16T09:23:12;3.90;;;1.60;;
8626;SDS011;4351;51.422;6.794;2022-10-16T09:25:44;4.80;;;1.70;;
8626;SDS011;4351;51.422;6.794;2022-10-16T09:28:18;2.97;;;1.23;;
8626;SDS011;4351;51.422;6.794;2022-10-16T09:30:50;2.57;;;1.10;;
8626;SDS011;4351;51.422;6.794;2022-10-16T09:33:21;5.40;;;1.77;;
8626;SDS011;4351;51.422;6.794;2022-10-16T09:35:53;2.60;;;1.30;;
8626;SDS011;4351;51.422;6.794;2022-10-16T09:38:34;5.90;;;1.50;;
8626;SDS011;4351;51.422;6.794;2022-10-16T09:41:10;5.17;;;1.10;;
8626;SDS011;4351;51.422;6.794;2022-10-16T09:43:46;2.43;;;1.20;;
8626;SDS011;4351;51.422;6.794;2022-10-16T09:46:28;3.77;;;1.30;;
8626;SDS011;4351;51.422;6.794;2022-10-16T09:51:49;3.70;;;1.13;;
8626;SDS011;4351;51.422;6.794;2022-10-16T09:54:21;3.83;;;1.03;;
8626;SDS011;4351;51.422;6.794;2022-10-16T10:02:51;3.67;;;1.17;;
8626;SDS011;4351;51.422;6.794;2022-10-16T10:05:21;4.47;;;0.97;;
8626;SDS011;4351;51.422;6.794;2022-10-16T10:07:54;1.97;;;0.80;;
8626;SDS011;4351;51.422;6.794;2022-10-16T10:10:25;3.30;;;0.93;;
8626;SDS011;4351;51.422;6.794;2022-10-16T10:13:04;3.70;;;1.27;;
8626;SDS011;4351;51.422;6.794;2022-10-16T10:15:47;3.03;;;1.10;;
8626;SDS011;4351;51.422;6.794;2022-10-16T10:18:22;4.07;;;1.20;;
8626;SDS011;4351;51.422;6.794;2022-10-16T10:21:05;6.03;;;1.33;;
8626;SDS011;4351;51.422;6.794;2022-10-16T10:23:34;2.27;;;1.10;;
8626;SDS011;4351;51.422;6.794;2022-10-16T10:26:06;4.43;;;1.63;;
8626;SDS011;4351;51.422;6.794;2022-10-16T10:28:58;3.00;;;1.10;;
8626;SDS011;4351;51.422;6.794;2022-10-16T10:31:36;2.23;;;0.90;;
8626;SDS011;4351;51.422;6.794;2022-10-16T10:34:25;2.03;;;0.90;;
8626;SDS011;4351;51.422;6.794;2022-10-16T10:37:04;2.30;;;1.03;;
8626;SDS011;4351;51.422;6.794;2022-10-16T10:39:46;3.83;;;0.90;;
8626;SDS011;4351;51.422;6.794;2022-10-16T10:42:24;4.33;;;1.00;;
8626;SDS011;4351;51.422;6.794;2022-10-16T10:45:07;4.33;;;1.20;;
8626;SDS011;4351;51.422;6.794;2022-10-16T10:48:04;4.20;;;1.00;;
8626;SDS011;4351;51.422;6.794;2022-10-16T10:50:49;5.27;;;1.20;;
8626;SDS011;4351;51.422;6.794;2022-10-16T10:53:25;2.03;;;0.90;;
8626;SDS011;4351;51.422;6.794;2022-10-16T10:56:13;3.67;;;1.00;;
8626;SDS011;4351;51.422;6.794;2022-10-16T10:58:54;3.83;;;1.13;;
8626;SDS011;4351;51.422;6.794;2022-10-16T11:01:34;2.13;;;0.90;;
8626;SDS011;4351;51.422;6.794;2022-10-16T11:04:37;4.23;;;0.97;;
8626;SDS011;4351;51.422;6.794;2022-10-16T11:07:21;2.57;;;1.00;;
8626;SDS011;4351;51.422;6.794;2022-10-16T11:09:56;3.40;;;1.10;;
8626;SDS011;4351;51.422;6.794;2022-10-16T11:12:31;3.00;;;1.20;;
8626;SDS011;4351;51.422;6.794;2022-10-16T11:15:12;3.57;;;1.33;;
8626;SDS011;4351;51.422;6.794;2022-10-16T11:17:45;2.77;;;1.07;;
8626;SDS011;4351;51.422;6.794;2022-10-16T11:20:19;3.33;;;1.40;;
8626;SDS011;4351;51.422;6.794;2022-10-16T11:22:55;2.67;;;1.10;;
8626;SDS011;4351;51.422;6.794;2022-10-16T11:25:30;5.33;;;0.93;;
8626;SDS011;4351;51.422;6.794;2022-10-16T11:28:01;2.70;;;0.93;;
8626;SDS011;4351;51.422;6.794;2022-10-16T11:30:39;1.80;;;0.93;;
8626;SDS011;4351;51.422;6.794;2022-10-16T11:33:25;3.73;;;0.90;;
8626;SDS011;4351;51.422;6.794;2022-10-16T11:36:04;3.13;;;1.10;;
8626;SDS011;4351;51.422;6.794;2022-10-16T11:38:43;2.73;;;1.17;;
8626;SDS011;4351;51.422;6.794;2022-10-16T11:41:24;1.77;;;0.90;;
8626;SDS011;4351;51.422;6.794;2022-10-16T11:44:06;2.87;;;1.10;;
8626;SDS011;4351;51.422;6.794;2022-10-16T11:46:45;1.63;;;0.70;;
8626;SDS011;4351;51.422;6.794;2022-10-16T11:50:00;2.97;;;0.87;;
8626;SDS011;4351;51.422;6.794;2022-10-16T11:52:33;2.20;;;0.70;;
8626;SDS011;4351;51.422;6.794;2022-10-16T11:58:16;3.20;;;0.80;;
8626;SDS011;4351;51.422;6.794;2022-10-16T12:00:53;2.60;;;1.00;;
8626;SDS011;4351;51.422;6.794;2022-10-16T12:03:31;5.93;;;1.13;;
8626;SDS011;4351;51.422;6.794;2022-10-16T12:06:21;1.77;;;1.20;;
8626;SDS011;4351;51.422;6.794;2022-10-16T12:08:59;2.80;;;1.00;;
8626;SDS011;4351;51.422;6.794;2022-10-16T12:11:36;3.63;;;1.30;;
8626;SDS011;4351;51.422;6.794;2022-10-16T12:14:07;4.10;;;1.30;;
8626;SDS011;4351;51.422;6.794;2022-10-16T12:16:53;3.37;;;1.43;;
8626;SDS011;4351;51.422;6.794;2022-10-16T12:19:24;5.00;;;1.20;;
8626;SDS011;4351;51.422;6.794;2022-10-16T12:22:04;6.50;;;1.60;;
8626;SDS011;4351;51.422;6.794;2022-10-16T12:24:50;5.30;;;1.70;;
8626;SDS011;4351;51.422;6.794;2022-10-16T12:27:22;3.33;;;1.67;;
8626;SDS011;4351;51.422;6.794;2022-10-16T12:29:59;5.00;;;1.00;;
8626;SDS011;4351;51.422;6.794;2022-10-16T12:37:07;3.10;;;1.00;;
8626;SDS011;4351;51.422;6.794;2022-10-16T12:39:43;4.00;;;1.00;;
8626;SDS011;4351;51.422;6.794;2022-10-16T12:42:21;2.67;;;1.00;;
8626;SDS011;4351;51.422;6.794;2022-10-16T12:45:21;3.67;;;1.20;;
8626;SDS011;4351;51.422;6.794;2022-10-16T12:47:56;3.33;;;0.97;;
8626;SDS011;4351;51.422;6.794;2022-10-16T12:50:26;4.87;;;1.13;;
8626;SDS011;4351;51.422;6.794;2022-10-16T12:53:00;4.10;;;0.97;;
8626;SDS011;4351;51.422;6.794;2022-10-16T12:55:32;3.80;;;1.20;;
8626;SDS011;4351;51.422;6.794;2022-10-16T12:58:16;6.10;;;1.30;;
8626;SDS011;4351;51.422;6.794;2022-10-16T13:00:55;4.00;;;1.10;;
8626;SDS011;4351;51.422;6.794;2022-10-16T13:03:43;3.43;;;1.10;;
8626;SDS011;4351;51.422;6.794;2022-10-16T13:06:27;1.97;;;0.87;;
8626;SDS011;4351;51.422;6.794;2022-10-16T13:09:17;2.70;;;0.90;;
8626;SDS011;4351;51.422;6.794;2022-10-16T13:12:11;3.40;;;1.00;;
8626;SDS011;4351;51.422;6.794;2022-10-16T13:17:56;2.33;;;0.93;;
8626;SDS011;4351;51.422;6.794;2022-10-16T13:20:33;4.83;;;1.00;;
8626;SDS011;4351;51.422;6.794;2022-10-16T13:23:13;2.80;;;1.03;;
8626;SDS011;4351;51.422;6.794;2022-10-16T13:25:56;2.47;;;1.00;;
8626;SDS011;4351;51.422;6.794;2022-10-16T13:28:35;3.63;;;1.10;;
8626;SDS011;4351;51.422;6.794;2022-10-16T13:31:12;3.57;;;1.10;;
8626;SDS011;4351;51.422;6.794;2022-10-16T13:33:57;4.70;;;1.17;;
8626;SDS011;4351;51.422;6.794;2022-10-16T13:36:33;2.23;;;0.90;;
8626;SDS011;4351;51.422;6.794;2022-10-16T13:39:22;2.30;;;0.90;;
8626;SDS011;4351;51.422;6.794;2022-10-16T13:42:00;3.03;;;1.43;;
8626;SDS011;4351;51.422;6.794;2022-10-16T13:44:36;3.53;;;1.37;;
8626;SDS011;4351;51.422;6.794;2022-10-16T13:47:22;2.47;;;1.00;;
8626;SDS011;4351;51.422;6.794;2022-10-16T13:50:03;3.80;;;1.03;;
8626;SDS011;4351;51.422;6.794;2022-10-16T13:52:35;3.27;;;1.20;;
8626;SDS011;4351;51.422;6.794;2022-10-16T13:55:15;7.33;;;1.70;;
8626;SDS011;4351;51.422;6.794;2022-10-16T13:57:51;6.90;;;1.40;;
8626;SDS011;4351;51.422;6.794;2022-10-16T14:00:35;8.43;;;1.77;;
8626;SDS011;4351;51.422;6.794;2022-10-16T14:03:07;8.30;;;1.87;;
8626;SDS011;4351;51.422;6.794;2022-10-16T14:05:53;3.70;;;1.40;;
8626;SDS011;4351;51.422;6.794;2022-10-16T14:08:45;3.37;;;1.53;;
8626;SDS011;4351;51.422;6.794;2022-10-16T14:11:38;4.03;;;1.20;;
8626;SDS011;4351;51.422;6.794;2022-10-16T14:14:15;2.10;;;0.87;;
8626;SDS011;4351;51.422;6.794;2022-10-16T14:16:44;4.87;;;1.00;;
8626;SDS011;4351;51.422;6.794;2022-10-16T14:19:15;3.97;;;0.80;;
8626;SDS011;4351;51.422;6.794;2022-10-16T14:21:50;2.87;;;0.93;;
8626;SDS011;4351;51.422;6.794;2022-10-16T14:24:25;2.03;;;0.80;;
8626;SDS011;4351;51.422;6.794;2022-10-16T14:26:55;1.73;;;0.70;;
8626;SDS011;4351;51.422;6.794;2022-10-16T14:29:25;2.97;;;1.00;;
8626;SDS011;4351;51.422;6.794;2022-10-16T14:31:55;1.63;;;0.70;;
8626;SDS011;4351;51.422;6.794;2022-10-16T14:34:25;4.37;;;1.20;;
8626;SDS011;4351;51.422;6.794;2022-10-16T14:36:58;1.60;;;0.90;;
8626;SDS011;4351;51.422;6.794;2022-10-16T14:39:31;6.60;;;1.00;;
8626;SDS011;4351;51.422;6.794;2022-10-16T14:41:59;3.87;;;1.10;;
8626;SDS011;4351;51.422;6.794;2022-10-16T14:44:31;3.87;;;1.10;;
8626;SDS011;4351;51.422;6.794;2022-10-16T14:47:07;4.63;;;1.10;;
8626;SDS011;4351;51.422;6.794;2022-10-16T14:49:42;3.67;;;1.00;;
8626;SDS011;4351;51.422;6.794;2022-10-16T14:52:12;3.10;;;1.00;;
8626;SDS011;4351;51.422;6.794;2022-10-16T14:54:40;1.90;;;1.10;;
8626;SDS011;4351;51.422;6.794;2022-10-16T14:57:15;5.57;;;1.23;;
8626;SDS011;4351;51.422;6.794;2022-10-16T14:59:45;4.33;;;1.30;;
8626;SDS011;4351;51.422;6.794;2022-10-16T15:02:29;2.93;;;1.00;;
8626;SDS011;4351;51.422;6.794;2022-10-16T15:05:01;4.83;;;1.30;;
8626;SDS011;4351;51.422;6.794;2022-10-16T15:07:40;2.00;;;1.00;;
8626;SDS011;4351;51.422;6.794;2022-10-16T15:10:08;5.03;;;1.33;;
8626;SDS011;4351;51.422;6.794;2022-10-16T15:12:37;4.50;;;1.53;;
8626;SDS011;4351;51.422;6.794;2022-10-16T15:15:14;3.73;;;1.20;;
8626;SDS011;4351;51.422;6.794;2022-10-16T15:17:58;2.23;;;1.13;;
8626;SDS011;4351;51.422;6.794;2022-10-16T15:20:28;3.67;;;1.47;;
8626;SDS011;4351;51.422;6.794;2022-10-16T15:23:01;3.67;;;1.30;;
8626;SDS011;4351;51.422;6.794;2022-10-16T15:25:32;3.17;;;1.30;;
8626;SDS011;4351;51.422;6.794;2022-10-16T15:28:06;2.23;;;1.10;;
8626;SDS011;4351;51.422;6.794;2022-10-16T15:30:34;4.17;;;1.20;;
8626;SDS011;4351;51.422;6.794;2022-10-16T15:33:03;3.30;;;1.50;;
8626;SDS011;4351;51.422;6.794;2022-10-16T15:35:45;3.57;;;1.27;;
8626;SDS011;4351;51.422;6.794;2022-10-16T15:38:15;7.10;;;1.37;;
8626;SDS011;4351;51.422;6.794;2022-10-16T15:40:45;6.13;;;1.60;;
8626;SDS011;4351;51.422;6.794;2022-10-16T15:43:14;3.63;;;1.50;;
8626;SDS011;4351;51.422;6.794;2022-10-16T15:45:43;2.40;;;1.10;;
8626;SDS011;4351;51.422;6.794;2022-10-16T15:48:28;5.37;;;1.37;;
8626;SDS011;4351;51.422;6.794;2022-10-16T15:50:57;2.67;;;1.47;;
8626;SDS011;4351;51.422;6.794;2022-10-16T15:53:26;3.20;;;1.47;;
8626;SDS011;4351;51.422;6.794;2022-10-16T15:55:55;5.03;;;1.80;;
8626;SDS011;4351;51.422;6.794;2022-10-16T15:58:25;3.63;;;1.40;;
8626;SDS011;4351;51.422;6.794;2022-10-16T16:01:00;4.80;;;1.10;;
8626;SDS011;4351;51.422;6.794;2022-10-16T16:03:30;3.43;;;1.20;;
8626;SDS011;4351;51.422;6.794;2022-10-16T16:06:03;5.53;;;1.30;;
8626;SDS011;4351;51.422;6.794;2022-10-16T16:08:37;5.80;;;1.43;;
8626;SDS011;4351;51.422;6.794;2022-10-16T16:11:08;4.60;;;1.20;;
8626;SDS011;4351;51.422;6.794;2022-10-16T16:13:37;4.80;;;1.20;;
8626;SDS011;4351;51.422;6.794;2022-10-16T16:16:07;5.93;;;1.37;;
8626;SDS011;4351;51.422;6.794;2022-10-16T16:18:36;7.50;;;1.60;;
8626;SDS011;4351;51.422;6.794;2022-10-16T16:21:14;3.07;;;1.40;;
8626;SDS011;4351;51.422;6.794;2022-10-16T16:23:44;3.03;;;1.37;;
8626;SDS011;4351;51.422;6.794;2022-10-16T16:26:13;4.50;;;1.20;;
8626;SDS011;4351;51.422;6.794;2022-10-16T16:28:42;4.20;;;1.30;;
8626;SDS011;4351;51.422;6.794;2022-10-16T16:31:17;5.77;;;1.43;;
8626;SDS011;4351;51.422;6.794;2022-10-16T16:33:46;3.23;;;1.33;;
8626;SDS011;4351;51.422;6.794;2022-10-16T16:36:14;5.43;;;1.10;;
8626;SDS011;4351;51.422;6.794;2022-10-16T16:38:45;5.30;;;1.30;;